Time;durP1;ratioP1;P1;durP2;ratioP2;P2;SDS_P1;SDS_P2;PMS_P1;PMS_P2;Temp;Humidity;BMP_temperature;BMP_pressure;BME280_temperature;BME280_humidity;BME280_pressure;Samples;Min_cycle;Max_cycle;Signal;HPM_P1;HPM_P2
2022/09/18 00:00:47;;;;;;;;;0.00;0.00;;;;;13.51;47.96;99404.50;4978314;28;45516;-60
2022/09/18 00:03:14;;;;;;;;;0.00;0.00;;;;;13.50;47.99;99413.38;4975191;28;45683;-60
2022/09/18 00:05:40;;;;;;;;;2.00;1.00;;;;;13.45;47.98;99409.19;4957853;28;45410;-60
2022/09/18 00:08:06;;;;;;;;;2.00;0.00;;;;;13.38;47.99;99411.31;4975156;28;45434;-60
2022/09/18 00:10:32;;;;;;;;;0.00;0.00;;;;;13.32;47.91;99421.31;4975567;28;45515;-65
2022/09/18 00:12:58;;;;;;;;;1.00;0.00;;;;;13.27;47.86;99417.06;4975178;28;46273;-62
2022/09/18 00:15:23;;;;;;;;;1.75;0.75;;;;;13.27;48.10;99413.56;4975177;28;45502;-61
2022/09/18 00:17:49;;;;;;;;;0.00;0.00;;;;;13.25;48.17;99407.47;4971610;28;45396;-61
2022/09/18 00:20:14;;;;;;;;;0.00;0.00;;;;;13.20;48.19;99405.06;4984397;28;45723;-61
2022/09/18 00:22:39;;;;;;;;;1.00;1.00;;;;;13.16;48.47;99408.78;4994286;28;45342;-61
2022/09/18 00:25:07;;;;;;;;;0.00;0.00;;;;;13.13;48.70;99414.19;4994924;28;45500;-61
2022/09/18 00:27:33;;;;;;;;;1.00;1.00;;;;;13.12;48.48;99414.25;4976592;28;45384;-61
2022/09/18 00:29:58;;;;;;;;;1.25;1.00;;;;;13.11;48.64;99412.53;4974940;28;45364;-61
2022/09/18 00:32:24;;;;;;;;;0.00;0.00;;;;;13.11;48.92;99416.03;4974984;28;45399;-62
2022/09/18 00:34:49;;;;;;;;;0.00;0.00;;;;;13.13;48.98;99423.91;4974954;28;45433;-62
2022/09/18 00:37:14;;;;;;;;;0.50;0.50;;;;;13.10;49.25;99411.66;4974429;28;45221;-61
2022/09/18 00:39:40;;;;;;;;;0.00;0.00;;;;;13.10;49.54;99421.38;4975031;28;45494;-61
2022/09/18 00:42:06;;;;;;;;;0.00;0.00;;;;;13.08;49.42;99417.94;4957197;28;45695;-62
2022/09/18 00:44:36;;;;;;;;;0.75;0.75;;;;;13.10;49.44;99413.44;4975041;28;45356;-62
2022/09/18 00:47:04;;;;;;;;;0.00;0.00;;;;;13.10;49.64;99424.03;4979416;28;45540;-62
2022/09/18 00:49:30;;;;;;;;;2.50;1.00;;;;;13.11;49.82;99412.53;4979059;28;45431;-62
2022/09/18 00:51:59;;;;;;;;;1.00;1.00;;;;;13.10;50.59;99414.31;4990163;28;46524;-61
2022/09/18 00:54:30;;;;;;;;;1.00;1.00;;;;;13.11;51.47;99416.03;4975422;28;45492;-62
2022/09/18 00:57:00;;;;;;;;;1.25;1.00;;;;;13.11;51.23;99423.09;4994599;28;45417;-62
2022/09/18 00:59:29;;;;;;;;;0.25;0.25;;;;;13.09;51.75;99420.53;4970392;28;45370;-62
2022/09/18 01:01:56;;;;;;;;;1.00;1.00;;;;;13.07;51.68;99422.38;4968104;28;45561;-62
2022/09/18 01:04:23;;;;;;;;;3.00;3.00;;;;;13.06;50.92;99430.44;4993906;28;45514;-62
2022/09/18 01:07:13;;;;;;;;;0.25;0.25;;;;;13.01;50.97;99424.47;4994001;28;45395;-62
2022/09/18 01:09:49;;;;;;;;;1.00;1.00;;;;;12.98;51.28;99428.09;5007824;28;45430;-62
2022/09/18 01:12:30;;;;;;;;;1.50;1.00;;;;;12.93;51.23;99430.09;4993889;28;46247;-62
2022/09/18 01:15:16;;;;;;;;;1.00;1.00;;;;;12.91;51.16;99435.44;4987446;28;45411;-62
2022/09/18 01:18:02;;;;;;;;;1.00;1.00;;;;;12.90;51.43;99433.72;4974340;28;45454;-62
2022/09/18 01:20:51;;;;;;;;;2.00;1.00;;;;;12.88;51.32;99435.63;4974396;28;45450;-62
2022/09/18 01:23:54;;;;;;;;;1.00;1.00;;;;;12.85;51.45;99440.16;4974308;28;46337;-61
2022/09/18 01:26:40;;;;;;;;;1.00;0.25;;;;;12.83;51.60;99437.59;4981652;28;45345;-61
2022/09/18 01:29:12;;;;;;;;;0.00;0.00;;;;;12.81;52.57;99441.22;4996214;28;45432;-61
2022/09/18 01:31:51;;;;;;;;;1.00;1.00;;;;;12.76;51.99;99436.13;4997542;28;45430;-61
2022/09/18 01:34:26;;;;;;;;;1.50;0.25;;;;;12.76;52.03;99444.06;5012675;28;45745;-62
2022/09/18 01:36:57;;;;;;;;;0.00;0.00;;;;;12.76;51.81;99445.84;4996527;28;45390;-62
2022/09/18 01:39:30;;;;;;;;;1.00;1.00;;;;;12.75;51.81;99441.50;4997233;28;45372;-62
2022/09/18 01:41:57;;;;;;;;;1.00;1.00;;;;;12.72;52.95;99447.78;4996781;28;45446;-62
2022/09/18 01:44:28;;;;;;;;;1.75;1.00;;;;;12.63;53.05;99447.31;4979151;28;46371;-61
2022/09/18 01:46:57;;;;;;;;;1.60;1.00;;;;;12.56;53.11;99446.75;4983536;28;45467;-61
2022/09/18 01:49:28;;;;;;;;;1.00;1.00;;;;;12.53;53.10;99445.09;4997234;28;45444;-62
2022/09/18 01:52:11;;;;;;;;;1.25;1.25;;;;;12.52;53.11;99448.66;4996699;28;45474;-62
2022/09/18 01:54:40;;;;;;;;;1.00;1.00;;;;;12.53;53.58;99452.16;4996565;28;46555;-61
2022/09/18 01:57:23;;;;;;;;;1.25;1.00;;;;;12.49;54.03;99446.13;4997217;28;45489;-61
2022/09/18 02:00:05;;;;;;;;;1.00;1.00;;;;;12.40;53.61;99450.97;4988295;28;45827;-62
2022/09/18 02:02:40;;;;;;;;;1.00;1.00;;;;;12.34;53.28;99453.84;4975206;28;45380;-61
2022/09/18 02:05:08;;;;;;;;;1.00;1.00;;;;;12.31;53.11;99448.69;4986492;28;46378;-61
2022/09/18 02:07:59;;;;;;;;;2.00;2.00;;;;;12.27;54.18;99453.25;4996385;28;45485;-62
2022/09/18 02:10:30;;;;;;;;;0.00;0.00;;;;;12.17;54.39;99463.34;4996834;28;45381;-61
2022/09/18 02:12:56;;;;;;;;;0.00;0.00;;;;;12.10;54.80;99459.22;4996018;28;45480;-61
2022/09/18 02:15:27;;;;;;;;;1.50;1.00;;;;;12.02;55.23;99458.69;4986186;28;46644;-61
2022/09/18 02:17:59;;;;;;;;;1.00;0.00;;;;;11.92;55.18;99467.03;4976928;28;45447;-61
2022/09/18 02:20:30;;;;;;;;;1.00;1.00;;;;;11.83;55.41;99463.84;4959773;28;45547;-61
2022/09/18 02:23:06;;;;;;;;;1.00;1.00;;;;;11.75;55.27;99455.31;4976186;28;45544;-61
2022/09/18 02:25:49;;;;;;;;;0.75;0.75;;;;;11.72;55.68;99452.81;4976782;28;46356;-60
2022/09/18 02:28:18;;;;;;;;;1.00;1.00;;;;;11.71;55.64;99456.38;4976439;28;45595;-60
2022/09/18 02:30:44;;;;;;;;;1.50;1.50;;;;;11.67;56.11;99449.50;4976421;28;45333;-62
2022/09/18 02:33:25;;;;;;;;;2.25;1.00;;;;;11.63;55.98;99447.88;4976803;28;45385;-62
2022/09/18 02:36:14;;;;;;;;;1.00;1.00;;;;;11.60;55.95;99445.34;4976136;28;45864;-68
2022/09/18 02:38:45;;;;;;;;;0.25;0.25;;;;;11.59;56.02;99448.06;4961399;28;45473;-76
2022/09/18 02:41:34;;;;;;;;;2.50;2.00;;;;;11.59;56.28;99448.06;4995712;28;45398;-62
2022/09/18 02:44:05;;;;;;;;;0.00;0.00;;;;;11.56;56.70;99450.84;4974183;28;45553;-63
2022/09/18 02:46:37;;;;;;;;;1.00;1.00;;;;;11.54;57.09;99454.41;4976844;28;46280;-62
2022/09/18 02:49:50;;;;;;;;;1.00;1.00;;;;;11.54;57.09;99446.47;4996372;28;45403;-62
2022/09/18 02:52:24;;;;;;;;;3.00;1.00;;;;;11.58;57.21;99446.34;4935661;28;45489;-61
2022/09/18 02:55:01;;;;;;;;;0.50;0.50;;;;;11.60;57.29;99441.84;4995855;28;45533;-63
2022/09/18 02:57:36;;;;;;;;;2.00;1.50;;;;;11.62;57.68;99437.38;4995602;28;46605;-62
2022/09/18 03:00:04;;;;;;;;;1.50;1.50;;;;;11.65;57.60;99442.53;4984970;28;45509;-65
2022/09/18 03:02:29;;;;;;;;;2.00;0.00;;;;;11.66;57.62;99439.84;4976337;28;45453;-64
2022/09/18 03:04:55;;;;;;;;;1.00;1.00;;;;;11.67;57.90;99433.66;4994378;28;45444;-62
2022/09/18 03:07:20;;;;;;;;;1.25;1.25;;;;;11.69;57.50;99439.72;4995389;28;45598;-62
2022/09/18 03:09:46;;;;;;;;;0.75;0.75;;;;;11.72;57.77;99439.63;4977311;28;45372;-62
2022/09/18 03:12:12;;;;;;;;;1.00;1.00;;;;;11.75;57.64;99438.59;4976331;28;45526;-63
2022/09/18 03:14:37;;;;;;;;;0.75;0.75;;;;;11.72;58.21;99444.03;4976098;28;45513;-61
2022/09/18 03:17:03;;;;;;;;;1.75;0.00;;;;;11.60;57.53;99445.34;4975911;28;45356;-62
2022/09/18 03:19:29;;;;;;;;;1.00;1.00;;;;;11.47;58.21;99441.47;4976037;28;45544;-61
2022/09/18 03:21:54;;;;;;;;;1.25;1.00;;;;;11.36;57.74;99436.63;4975876;28;45966;-62
2022/09/18 03:24:19;;;;;;;;;1.00;0.50;;;;;11.29;57.98;99440.41;4976174;28;45524;-63
2022/09/18 03:26:46;;;;;;;;;1.00;1.00;;;;;11.24;57.70;99436.19;4976271;28;45818;-62
2022/09/18 03:29:12;;;;;;;;;2.00;1.50;;;;;11.21;58.36;99446.91;4975206;28;45358;-63
2022/09/18 03:31:38;;;;;;;;;1.00;1.00;;;;;11.17;58.51;99448.78;4976365;28;45440;-62
2022/09/18 03:34:04;;;;;;;;;1.00;1.00;;;;;11.11;58.31;99449.00;4993260;28;45390;-62
2022/09/18 03:36:30;;;;;;;;;2.00;1.00;;;;;11.08;58.54;99455.25;4994646;28;45682;-62
2022/09/18 03:38:56;;;;;;;;;2.00;2.00;;;;;11.08;58.36;99452.59;4977768;28;45503;-62
2022/09/18 03:41:21;;;;;;;;;1.00;1.00;;;;;11.11;58.77;99452.50;4976014;28;45317;-62
2022/09/18 03:43:47;;;;;;;;;1.00;0.00;;;;;11.13;58.94;99455.09;4975558;28;45525;-61
2022/09/18 03:46:13;;;;;;;;;1.50;1.00;;;;;11.13;59.11;99455.94;4975660;28;45595;-61
2022/09/18 03:48:39;;;;;;;;;0.50;0.50;;;;;11.10;59.63;99458.69;4973781;28;45960;-61
2022/09/18 03:51:04;;;;;;;;;1.25;1.25;;;;;11.06;59.76;99464.16;4986248;28;45344;-62
2022/09/18 03:53:30;;;;;;;;;1.00;1.00;;;;;10.99;60.15;99457.38;4994802;28;45322;-62
2022/09/18 03:55:55;;;;;;;;;2.00;2.00;;;;;10.95;60.31;99468.94;4994799;28;45287;-63
2022/09/18 03:58:21;;;;;;;;;1.00;1.00;;;;;10.92;60.12;99476.97;4995277;28;45505;-63
2022/09/18 04:00:46;;;;;;;;;0.75;0.75;;;;;10.91;60.23;99477.88;4978260;28;45384;-62
2022/09/18 04:03:11;;;;;;;;;1.00;1.00;;;;;10.91;60.23;99476.09;4993507;28;45406;-62
2022/09/18 04:05:37;;;;;;;;;2.75;1.00;;;;;10.92;60.46;99476.97;4995189;28;46145;-61
2022/09/18 04:08:04;;;;;;;;;3.00;3.00;;;;;10.91;61.03;99472.59;4994407;28;45430;-62
2022/09/18 04:10:30;;;;;;;;;1.00;1.00;;;;;10.90;60.12;99484.94;4995135;28;45465;-62
2022/09/18 04:12:56;;;;;;;;;1.00;1.00;;;;;10.89;59.89;99479.75;4994841;28;45549;-61
2022/09/18 04:15:21;;;;;;;;;2.25;1.75;;;;;10.84;60.63;99477.25;4994657;28;45471;-62
2022/09/18 04:17:46;;;;;;;;;3.00;1.00;;;;;10.79;60.52;99487.09;4974300;28;45477;-62
2022/09/18 04:20:12;;;;;;;;;1.00;1.00;;;;;10.77;59.85;99487.16;4986787;28;45385;-63
2022/09/18 04:22:37;;;;;;;;;0.00;0.00;;;;;10.73;60.53;99485.53;4994330;28;45263;-62
2022/09/18 04:25:04;;;;;;;;;1.00;1.00;;;;;10.70;61.05;99479.53;4994980;28;46090;-63
2022/09/18 04:27:29;;;;;;;;;2.50;1.00;;;;;10.68;60.70;99484.84;4990402;28;45459;-66
2022/09/18 04:29:54;;;;;;;;;1.00;1.00;;;;;10.66;60.99;99485.81;4975252;28;45322;-62
2022/09/18 04:32:20;;;;;;;;;1.00;1.00;;;;;10.65;60.70;99481.44;4975234;28;45423;-62
2022/09/18 04:34:45;;;;;;;;;1.25;1.25;;;;;10.64;61.42;99480.59;4974950;28;45469;-62
2022/09/18 04:37:11;;;;;;;;;1.00;1.00;;;;;10.64;61.27;99479.72;4991585;28;45517;-63
2022/09/18 04:39:36;;;;;;;;;0.25;0.25;;;;;10.63;61.18;99486.78;4983840;28;45425;-62
2022/09/18 04:42:02;;;;;;;;;2.00;2.00;;;;;10.66;61.68;99491.94;4974681;28;45352;-64
2022/09/18 04:44:28;;;;;;;;;1.00;1.00;;;;;10.67;61.47;99491.03;4974784;28;45441;-64
2022/09/18 04:46:53;;;;;;;;;2.00;0.25;;;;;10.69;61.61;99490.97;4978102;28;45376;-64
2022/09/18 04:49:19;;;;;;;;;2.00;2.00;;;;;10.72;61.67;99490.88;4994975;28;45873;-64
2022/09/18 04:51:45;;;;;;;;;1.50;1.50;;;;;10.75;61.98;99490.75;4993870;28;45455;-64
2022/09/18 04:54:12;;;;;;;;;0.00;0.00;;;;;10.78;62.21;99498.56;4994230;28;45468;-64
2022/09/18 04:56:37;;;;;;;;;2.00;1.75;;;;;10.80;61.92;99505.50;4994180;28;45441;-64
2022/09/18 04:59:03;;;;;;;;;4.00;2.00;;;;;10.82;61.35;99503.69;4992021;28;45349;-64
2022/09/18 05:01:28;;;;;;;;;1.00;1.00;;;;;10.83;61.11;99501.91;4974577;28;45457;-64
2022/09/18 05:03:54;;;;;;;;;1.25;1.25;;;;;10.84;60.52;99503.63;4976635;28;46096;-64
2022/09/18 05:06:19;;;;;;;;;2.00;1.00;;;;;10.82;60.49;99506.31;4980894;28;45361;-63
2022/09/18 05:08:44;;;;;;;;;2.00;2.00;;;;;10.84;60.56;99511.53;4997863;28;45363;-63
2022/09/18 05:11:10;;;;;;;;;1.00;1.00;;;;;10.85;60.33;99513.28;4997295;28;45427;-63
2022/09/18 05:13:35;;;;;;;;;0.75;0.75;;;;;10.88;60.29;99510.53;4997936;28;45853;-62
2022/09/18 05:16:01;;;;;;;;;1.75;1.75;;;;;10.87;60.21;99516.72;4997726;28;45322;-62
2022/09/18 05:18:26;;;;;;;;;1.00;1.00;;;;;10.88;60.14;99530.75;4997221;28;45460;-62
2022/09/18 05:20:53;;;;;;;;;1.00;1.00;;;;;10.89;60.29;99524.56;4997156;28;45366;-62
2022/09/18 05:23:19;;;;;;;;;1.00;1.00;;;;;10.89;60.19;99525.44;4997387;28;45540;-62
2022/09/18 05:25:44;;;;;;;;;2.00;2.00;;;;;10.87;60.40;99511.44;4997182;28;45398;-62
2022/09/18 05:28:12;;;;;;;;;3.00;3.00;;;;;10.88;60.35;99520.22;4990152;28;45342;-63
2022/09/18 05:30:37;;;;;;;;;2.00;2.00;;;;;10.87;61.33;99523.75;4980464;28;45513;-62
2022/09/18 05:33:08;;;;;;;;;2.25;1.75;;;;;10.85;61.09;99529.09;4997683;28;45476;-62
2022/09/18 05:35:34;;;;;;;;;1.00;1.00;;;;;10.83;61.36;99534.41;4996878;28;45586;-62
2022/09/18 05:38:01;;;;;;;;;3.00;3.00;;;;;10.79;61.31;99540.69;4989849;28;45472;-62
2022/09/18 05:40:30;;;;;;;;;1.00;1.00;;;;;10.80;61.47;99533.66;4980160;28;46045;-60
2022/09/18 05:42:56;;;;;;;;;2.00;2.00;;;;;10.83;61.20;99530.91;4970747;28;47221;-63
2022/09/18 05:45:22;;;;;;;;;3.25;2.00;;;;;10.88;61.38;99538.69;4993019;28;45446;-62
2022/09/18 05:48:04;;;;;;;;;2.50;1.00;;;;;10.91;61.21;99538.53;4988023;28;45235;-61
2022/09/18 05:50:30;;;;;;;;;2.00;1.50;;;;;10.92;60.83;99549.06;4974846;28;46123;-62
2022/09/18 05:53:05;;;;;;;;;2.00;2.00;;;;;10.94;60.78;99544.59;4996420;28;46103;-62
2022/09/18 05:55:31;;;;;;;;;3.00;2.00;;;;;10.95;60.42;99548.94;4996633;28;45359;-62
2022/09/18 05:57:58;;;;;;;;;3.00;1.25;;;;;10.96;60.84;99550.69;4996469;28;45404;-62
2022/09/18 06:00:25;;;;;;;;;2.00;2.00;;;;;10.99;61.12;99547.06;4983815;28;45586;-63
2022/09/18 06:02:59;;;;;;;;;2.50;2.50;;;;;11.02;61.09;99550.47;4976337;28;45633;-62
2022/09/18 06:05:27;;;;;;;;;3.00;3.00;;;;;11.06;61.11;99551.22;4985112;28;45521;-63
2022/09/18 06:07:53;;;;;;;;;1.25;1.25;;;;;11.11;61.27;99559.81;4998223;28;45391;-62
2022/09/18 06:10:20;;;;;;;;;2.50;1.50;;;;;11.14;61.41;99560.59;4996170;28;45506;-62
2022/09/18 06:12:45;;;;;;;;;2.25;2.25;;;;;11.17;61.47;99557.84;4996443;28;46351;-62
2022/09/18 06:15:11;;;;;;;;;2.00;1.00;;;;;11.23;61.77;99569.09;4982364;28;45368;-67
2022/09/18 06:17:37;;;;;;;;;3.75;3.00;;;;;11.25;61.75;99562.81;4976871;28;45410;-69
2022/09/18 06:20:04;;;;;;;;;3.00;2.00;;;;;11.29;61.68;99559.16;4976965;28;45384;-68
2022/09/18 06:22:31;;;;;;;;;2.00;1.00;;;;;11.33;61.25;99557.28;4991832;28;45633;-68
2022/09/18 06:24:56;;;;;;;;;2.25;2.00;;;;;11.36;61.42;99565.97;4978821;28;45350;-68
2022/09/18 06:27:22;;;;;;;;;3.00;2.00;;;;;11.35;61.74;99569.53;4996264;28;45547;-70
2022/09/18 06:29:47;;;;;;;;;2.00;2.00;;;;;11.31;61.28;99575.81;4995970;28;45454;-70
2022/09/18 06:32:12;;;;;;;;;2.75;2.00;;;;;11.29;61.42;99577.66;4995744;28;45474;-70
2022/09/18 06:34:38;;;;;;;;;2.75;2.75;;;;;11.33;61.77;99581.03;4986571;28;45414;-64
2022/09/18 06:37:03;;;;;;;;;4.00;2.00;;;;;11.37;61.38;99578.25;4979171;28;45481;-66
2022/09/18 06:39:29;;;;;;;;;2.50;2.50;;;;;11.42;60.96;99576.28;4987690;28;45460;-69
2022/09/18 06:41:54;;;;;;;;;2.75;2.00;;;;;11.46;61.10;99569.13;4978940;28;45492;-68
2022/09/18 06:44:20;;;;;;;;;1.25;1.25;;;;;11.50;60.72;99574.25;4986823;28;45283;-66
2022/09/18 06:46:45;;;;;;;;;2.00;2.00;;;;;11.54;60.82;99569.72;4978195;28;45485;-64
2022/09/18 06:49:11;;;;;;;;;5.75;5.25;;;;;11.58;60.68;99573.94;4987109;28;45364;-72
2022/09/18 06:51:36;;;;;;;;;4.00;2.00;;;;;11.63;60.69;99582.56;4975747;28;45328;-70
2022/09/18 06:54:02;;;;;;;;;4.25;3.50;;;;;11.69;60.56;99577.06;4958547;28;45533;-71
2022/09/18 06:56:27;;;;;;;;;2.25;2.00;;;;;11.73;60.54;99576.00;4975577;28;45791;-71
2022/09/18 06:58:53;;;;;;;;;2.00;2.00;;;;;11.75;60.37;99576.81;4976416;28;45461;-69
2022/09/18 07:01:18;;;;;;;;;3.75;2.50;;;;;11.80;60.31;99576.69;4977023;28;45448;-63
2022/09/18 07:03:47;;;;;;;;;3.00;3.00;;;;;11.86;60.08;99576.47;4995295;28;45403;-67
2022/09/18 07:06:12;;;;;;;;;2.00;2.00;;;;;11.86;60.51;99569.41;4994924;28;45390;-68
2022/09/18 07:08:38;;;;;;;;;3.00;3.00;;;;;11.90;59.88;99564.00;4989797;28;45425;-65
2022/09/18 07:11:03;;;;;;;;;2.00;2.00;;;;;11.93;59.67;99569.16;4975542;28;45466;-70
2022/09/18 07:13:31;;;;;;;;;2.50;2.50;;;;;11.97;59.56;99570.75;4976042;28;45485;-70
2022/09/18 07:15:57;;;;;;;;;3.00;3.00;;;;;12.01;59.47;99564.44;4980657;28;45270;-75
2022/09/18 07:18:23;;;;;;;;;1.75;1.75;;;;;12.08;59.45;99558.84;4958070;28;45347;-68
2022/09/18 07:20:49;;;;;;;;;3.50;2.75;;;;;12.14;59.30;99561.25;4974928;28;45592;-68
2022/09/18 07:23:14;;;;;;;;;1.00;1.00;;;;;12.19;59.21;99564.59;4984643;28;45498;-70
2022/09/18 07:25:40;;;;;;;;;1.00;1.00;;;;;12.24;59.03;99569.66;4975567;28;45542;-67
2022/09/18 07:28:07;;;;;;;;;2.00;2.00;;;;;12.29;58.94;99556.28;4960821;28;45521;-71
2022/09/18 07:30:34;;;;;;;;;1.00;1.00;;;;;12.33;58.94;99553.47;4972421;28;48665;-73
2022/09/18 07:33:01;;;;;;;;;7.25;5.75;;;;;12.43;59.01;99564.50;4974761;28;45494;-69
2022/09/18 07:35:27;;;;;;;;;1.00;1.00;;;;;12.52;58.71;99554.44;4974561;28;45479;-64
2022/09/18 07:37:57;;;;;;;;;3.25;1.00;;;;;12.59;58.37;99560.31;4973597;28;45557;-63
2022/09/18 07:40:23;;;;;;;;;1.00;1.00;;;;;12.63;58.11;99553.97;4974693;28;46338;-64
2022/09/18 07:42:48;;;;;;;;;2.00;2.00;;;;;12.64;58.04;99557.50;4977494;28;45368;-65
2022/09/18 07:45:13;;;;;;;;;0.00;0.00;;;;;12.66;57.80;99558.28;4958142;28;45452;-65
2022/09/18 07:47:39;;;;;;;;;1.75;1.75;;;;;12.71;57.72;99557.19;4984621;28;45436;-65
2022/09/18 07:50:05;;;;;;;;;1.75;1.75;;;;;12.76;57.93;99560.47;4990420;28;45561;-65
2022/09/18 07:52:30;;;;;;;;;2.00;2.00;;;;;12.79;57.56;99555.06;4958806;28;46021;-65
2022/09/18 07:54:56;;;;;;;;;3.50;3.00;;;;;12.85;57.10;99554.81;4978065;28;45382;-65
2022/09/18 07:57:22;;;;;;;;;1.00;1.00;;;;;12.88;57.20;99559.13;5009752;28;45420;-64
2022/09/18 07:59:47;;;;;;;;;4.00;1.75;;;;;12.91;57.09;99557.19;4982302;28;45982;-65
2022/09/18 08:02:12;;;;;;;;;4.00;4.00;;;;;12.94;57.21;99558.84;4965395;28;45465;-60
2022/09/18 08:04:38;;;;;;;;;1.25;1.25;;;;;12.99;57.15;99558.66;4973140;28;45382;-60
2022/09/18 08:07:03;;;;;;;;;2.00;2.00;;;;;13.06;56.87;99560.13;4956243;28;45550;-61
2022/09/18 08:09:29;;;;;;;;;3.75;2.25;;;;;13.10;56.93;99565.19;4969797;28;46602;-60
2022/09/18 08:11:55;;;;;;;;;2.00;2.00;;;;;13.17;56.59;99576.41;4970466;28;45458;-61
2022/09/18 08:14:20;;;;;;;;;2.00;2.00;;;;;13.21;56.67;99567.44;4975471;28;45389;-59
2022/09/18 08:16:46;;;;;;;;;1.25;1.25;;;;;13.28;56.73;99567.06;4972714;28;45411;-59
2022/09/18 08:19:12;;;;;;;;;2.00;2.00;;;;;13.32;56.48;99570.47;4972771;28;45504;-59
2022/09/18 08:21:37;;;;;;;;;1.00;1.00;;;;;13.40;56.35;99564.84;4972359;28;45465;-59
2022/09/18 08:24:03;;;;;;;;;97.80;77.80;;;;;13.45;56.38;99565.47;4971359;28;45387;-58
2022/09/18 08:26:28;;;;;;;;;2.00;2.00;;;;;13.55;56.19;99569.44;4969513;28;45471;-58
2022/09/18 08:28:54;;;;;;;;;2.00;1.75;;;;;13.59;55.66;99558.63;4972243;28;45752;-60
2022/09/18 08:31:19;;;;;;;;;3.00;2.00;;;;;13.64;55.94;99561.06;4972703;28;45396;-60
2022/09/18 08:33:45;;;;;;;;;1.00;1.00;;;;;13.68;55.43;99562.66;4971326;28;45383;-59
2022/09/18 08:36:10;;;;;;;;;2.00;2.00;;;;;13.73;55.47;99563.31;4971104;28;45601;-61
2022/09/18 08:38:36;;;;;;;;;3.75;2.75;;;;;13.77;55.41;99569.31;4971837;28;45987;-59
2022/09/18 08:41:29;;;;;;;;;4.00;2.75;;;;;13.80;55.17;99567.38;4976888;28;45517;-60
2022/09/18 08:44:04;;;;;;;;;2.25;2.25;;;;;13.83;55.15;99563.72;4974129;28;45454;-61
2022/09/18 08:46:47;;;;;;;;;0.50;0.50;;;;;13.89;54.73;99574.06;4976492;28;45374;-61
2022/09/18 08:49:27;;;;;;;;;2.75;2.75;;;;;13.93;54.50;99575.63;4975742;28;46438;-61
2022/09/18 08:52:05;;;;;;;;;2.50;2.00;;;;;14.00;54.43;99582.38;4971058;28;45350;-59
2022/09/18 08:54:45;;;;;;;;;4.00;2.00;;;;;14.04;54.08;99581.31;4974706;28;45422;-59
2022/09/18 08:57:20;;;;;;;;;4.00;2.50;;;;;14.07;54.10;99573.22;4969279;28;45374;-59
2022/09/18 09:00:00;;;;;;;;;2.00;1.00;;;;;14.10;54.07;99574.81;4971893;28;45615;-59
2022/09/18 09:02:35;;;;;;;;;2.00;2.00;;;;;14.14;54.34;99573.75;4971565;28;45443;-62
2022/09/18 09:05:06;;;;;;;;;1.75;1.25;;;;;14.17;54.10;99577.13;4974603;28;45609;-61
2022/09/18 09:07:39;;;;;;;;;2.75;1.50;;;;;14.22;54.02;99572.47;4955245;28;46145;-58
2022/09/18 09:10:13;;;;;;;;;2.00;1.00;;;;;14.26;53.49;99568.72;4974236;28;46287;-68
2022/09/18 09:13:08;;;;;;;;;3.00;3.00;;;;;14.30;53.46;99565.00;4978817;28;45495;-64
2022/09/18 09:15:46;;;;;;;;;2.75;2.75;;;;;14.36;53.64;99565.66;4986008;28;45444;-67
2022/09/18 09:18:21;;;;;;;;;1.00;1.00;;;;;14.41;53.21;99571.63;4978492;28;45685;-61
2022/09/18 09:20:53;;;;;;;;;2.75;2.00;;;;;14.45;53.22;99560.78;4977646;28;45982;-64
2022/09/18 09:23:40;;;;;;;;;3.60;2.00;;;;;14.48;52.83;99565.94;4961404;28;45416;-64
2022/09/18 09:26:12;;;;;;;;;1.00;1.00;;;;;14.51;52.62;99563.13;4977055;28;45436;-64
2022/09/18 09:29:08;;;;;;;;;1.00;1.00;;;;;14.53;52.48;99560.41;4975182;28;45390;-64
2022/09/18 09:31:44;;;;;;;;;3.00;2.00;;;;;14.51;52.40;99564.94;4928389;28;48249;-62
2022/09/18 09:34:20;;;;;;;;;2.00;2.00;;;;;14.51;52.56;99559.63;4982872;28;45517;-63
2022/09/18 09:36:49;;;;;;;;;67.80;39.80;;;;;14.53;53.13;99563.06;4988066;28;45417;-62
2022/09/18 09:39:36;;;;;;;;;4.00;2.00;;;;;14.63;52.62;99553.69;4973867;28;45234;-66
2022/09/18 09:42:22;;;;;;;;;1.00;1.00;;;;;14.72;51.96;99552.41;4974532;28;45989;-76
2022/09/18 09:44:57;;;;;;;;;1.80;1.80;;;;;14.80;51.68;99550.22;4976296;28;45351;-65
2022/09/18 09:47:26;;;;;;;;;3.25;1.25;;;;;14.85;51.81;99562.31;4972253;28;45523;-65
2022/09/18 09:50:08;;;;;;;;;4.00;3.00;;;;;14.91;51.94;99553.19;4976036;28;45175;-64
2022/09/18 09:52:40;;;;;;;;;2.00;2.00;;;;;14.98;51.32;99546.63;4984632;28;46374;-68
2022/09/18 09:55:05;;;;;;;;;2.20;2.20;;;;;15.04;51.33;99548.09;5004874;28;45513;-68
2022/09/18 09:57:37;;;;;;;;;3.00;2.00;;;;;15.08;51.33;99547.03;4987024;28;45505;-66
2022/09/18 10:00:13;;;;;;;;;2.00;2.00;;;;;15.15;51.11;99535.13;4984984;28;45612;-60
2022/09/18 10:03:05;;;;;;;;;1.00;1.00;;;;;15.21;51.20;99543.66;4981320;28;45834;-63
2022/09/18 10:05:42;;;;;;;;;1.80;1.80;;;;;15.21;50.71;99532.16;4968997;28;45536;-67
2022/09/18 10:09:01;;;;;;;;;1.75;1.75;;;;;15.18;49.72;99529.66;4981471;28;45553;-69
2022/09/18 10:11:26;;;;;;;;;2.25;2.25;;;;;15.15;50.38;99524.50;4976515;28;45524;-68
2022/09/18 10:14:09;;;;;;;;;2.00;2.00;;;;;15.16;50.12;99528.88;4966916;28;45382;-68
2022/09/18 10:16:44;;;;;;;;;1.40;1.40;;;;;15.20;50.12;99527.78;4975844;28;45616;-68
2022/09/18 10:19:17;;;;;;;;;2.50;2.50;;;;;15.22;49.99;99526.78;4971535;28;45364;-68
2022/09/18 10:21:44;;;;;;;;;1.25;1.25;;;;;15.27;50.60;99518.53;4963103;28;45400;-68
2022/09/18 10:24:16;;;;;;;;;1.50;1.50;;;;;15.28;49.95;99513.16;4976014;28;46542;-68
2022/09/18 10:26:53;;;;;;;;;1.00;1.00;;;;;15.32;49.89;99509.41;4985806;28;45427;-68
2022/09/18 10:29:19;;;;;;;;;67.00;50.75;;;;;15.44;50.09;99507.00;4990094;28;45509;-66
2022/09/18 10:31:49;;;;;;;;;2.25;2.25;;;;;15.58;50.03;99505.38;4975303;28;45635;-68
2022/09/18 10:34:29;;;;;;;;;1.50;1.50;;;;;15.68;48.90;99500.41;4975989;28;45516;-66
2022/09/18 10:36:55;;;;;;;;;0.00;0.00;;;;;15.75;49.23;99506.25;4981321;28;45392;-61
2022/09/18 10:39:30;;;;;;;;;1.00;1.00;;;;;15.81;47.90;99504.09;4988577;28;45464;-61
2022/09/18 10:41:58;;;;;;;;;0.50;0.50;;;;;15.83;47.58;99496.91;4977157;28;45438;-62
2022/09/18 10:44:29;;;;;;;;;1.00;1.00;;;;;15.87;48.05;99493.13;4973109;28;45682;-61
2022/09/18 10:46:55;;;;;;;;;2.60;2.20;;;;;15.93;47.95;99486.59;4975119;28;45394;-61
2022/09/18 10:49:46;;;;;;;;;1.00;1.00;;;;;15.98;47.61;99492.53;4972897;28;45467;-62
2022/09/18 10:52:30;;;;;;;;;1.75;1.75;;;;;16.00;47.52;99488.00;4975529;28;45435;-61
2022/09/18 10:55:05;;;;;;;;;0.80;0.80;;;;;16.07;48.43;99492.03;4979907;28;45709;-62
2022/09/18 10:57:34;;;;;;;;;0.60;0.60;;;;;16.10;46.88;99481.19;4980470;28;45468;-62
2022/09/18 11:00:03;;;;;;;;;1.20;1.20;;;;;16.16;47.89;99482.66;4977433;28;45339;-63
2022/09/18 11:02:37;;;;;;;;;2.50;2.50;;;;;16.21;47.39;99485.91;4973464;28;45522;-63
2022/09/18 11:05:03;;;;;;;;;2.20;0.80;;;;;16.29;47.64;99484.50;4975147;28;45530;-58
2022/09/18 11:07:29;;;;;;;;;0.80;0.80;;;;;16.38;47.25;99481.34;4962173;28;45483;-59
2022/09/18 11:09:55;;;;;;;;;1.50;1.00;;;;;16.42;47.66;99487.34;4981730;28;45418;-58
2022/09/18 11:12:23;;;;;;;;;1.00;1.00;;;;;16.45;47.50;99479.16;4976777;28;45505;-60
2022/09/18 11:14:59;;;;;;;;;2.50;1.75;;;;;16.50;47.20;99481.56;4963921;28;47566;-67
2022/09/18 11:17:30;;;;;;;;;6.00;3.20;;;;;16.64;47.10;99478.97;4978172;28;45504;-62
2022/09/18 11:19:57;;;;;;;;;2.00;1.80;;;;;16.76;46.60;99475.56;4966848;28;45439;-60
2022/09/18 11:22:38;;;;;;;;;3.75;2.50;;;;;16.77;46.96;99473.78;4965385;28;45369;-61
2022/09/18 11:25:13;;;;;;;;;1.60;1.60;;;;;16.83;46.84;99471.59;4953048;28;45482;-61
2022/09/18 11:27:48;;;;;;;;;1.40;1.40;;;;;16.90;46.95;99466.78;4962436;28;45530;-60
2022/09/18 11:30:20;;;;;;;;;1.80;1.80;;;;;16.96;47.03;99471.72;4964996;28;45488;-60
2022/09/18 11:32:49;;;;;;;;;1.40;1.40;;;;;17.00;47.04;99470.59;4961196;28;45387;-62
2022/09/18 11:35:18;;;;;;;;;1.00;1.00;;;;;17.04;46.76;99467.66;4945519;28;47191;-62
2022/09/18 11:37:54;;;;;;;;;1.40;1.40;;;;;17.12;47.36;99461.84;4963658;28;45459;-60
2022/09/18 11:40:32;;;;;;;;;0.00;0.00;;;;;17.17;46.05;99466.91;4958884;28;45392;-60
2022/09/18 11:43:04;;;;;;;;;0.40;0.00;;;;;17.18;46.54;99456.16;4963149;28;45469;-58
2022/09/18 11:45:47;;;;;;;;;1.00;1.00;;;;;17.20;46.90;99456.06;4963129;28;46096;-58
2022/09/18 11:48:18;;;;;;;;;1.40;1.00;;;;;17.22;46.45;99454.16;4954590;28;45370;-61